sensor_id;sensor_type;location;lat;lon;timestamp;P1;durP1;ratioP1;P2;durP2;ratioP2
61200;SDS011;47065;52.898;6.992;2023-03-01T00:02:02;36.53;;;16.23;;
61200;SDS011;47065;52.898;6.992;2023-03-01T00:04:27;26.15;;;13.48;;
61200;SDS011;47065;52.898;6.992;2023-03-01T00:06:53;25.73;;;13.57;;
61200;SDS011;47065;52.898;6.992;2023-03-01T00:09:19;27.67;;;15.90;;
61200;SDS011;47065;52.898;6.992;2023-03-01T00:11:44;28.35;;;17.20;;
61200;SDS011;47065;52.898;6.992;2023-03-01T00:14:11;75.53;;;20.42;;
61200;SDS011;47065;52.898;6.992;2023-03-01T00:16:38;91.55;;;21.73;;
61200;SDS011;47065;52.898;6.992;2023-03-01T00:19:05;130.02;;;21.25;;
61200;SDS011;47065;52.898;6.992;2023-03-01T00:21:33;84.90;;;23.52;;
61200;SDS011;47065;52.898;6.992;2023-03-01T00:24:00;42.17;;;19.60;;
61200;SDS011;47065;52.898;6.992;2023-03-01T00:26:26;30.55;;;17.08;;
61200;SDS011;47065;52.898;6.992;2023-03-01T00:28:52;35.08;;;18.02;;
61200;SDS011;47065;52.898;6.992;2023-03-01T00:31:24;25.75;;;16.25;;
61200;SDS011;47065;52.898;6.992;2023-03-01T00:34:04;24.05;;;15.98;;
61200;SDS011;47065;52.898;6.992;2023-03-01T00:36:31;24.65;;;14.85;;
61200;SDS011;47065;52.898;6.992;2023-03-01T00:38:58;22.55;;;13.50;;
61200;SDS011;47065;52.898;6.992;2023-03-01T00:41:24;22.95;;;14.13;;
61200;SDS011;47065;52.898;6.992;2023-03-01T00:43:51;101.40;;;21.92;;
61200;SDS011;47065;52.898;6.992;2023-03-01T00:46:22;35.40;;;20.15;;
61200;SDS011;47065;52.898;6.992;2023-03-01T00:48:49;27.55;;;16.48;;
61200;SDS011;47065;52.898;6.992;2023-03-01T00:51:20;21.98;;;13.48;;
61200;SDS011;47065;52.898;6.992;2023-03-01T00:53:47;20.38;;;13.82;;
61200;SDS011;47065;52.898;6.992;2023-03-01T00:56:16;27.95;;;16.45;;
61200;SDS011;47065;52.898;6.992;2023-03-01T00:58:41;25.33;;;14.82;;
61200;SDS011;47065;52.898;6.992;2023-03-01T01:01:11;25.05;;;14.73;;
61200;SDS011;47065;52.898;6.992;2023-03-01T01:03:45;23.15;;;15.00;;
61200;SDS011;47065;52.898;6.992;2023-03-01T01:06:23;24.08;;;14.25;;
61200;SDS011;47065;52.898;6.992;2023-03-01T01:08:54;20.00;;;12.88;;
61200;SDS011;47065;52.898;6.992;2023-03-01T01:11:21;17.48;;;12.75;;
61200;SDS011;47065;52.898;6.992;2023-03-01T01:13:48;25.60;;;14.98;;
61200;SDS011;47065;52.898;6.992;2023-03-01T01:16:15;25.35;;;14.20;;
61200;SDS011;47065;52.898;6.992;2023-03-01T01:18:42;29.17;;;16.73;;
61200;SDS011;47065;52.898;6.992;2023-03-01T01:21:10;29.13;;;17.88;;
61200;SDS011;47065;52.898;6.992;2023-03-01T01:23:38;30.33;;;17.65;;
61200;SDS011;47065;52.898;6.992;2023-03-01T01:26:05;26.58;;;16.45;;
61200;SDS011;47065;52.898;6.992;2023-03-01T01:28:35;31.38;;;18.55;;
61200;SDS011;47065;52.898;6.992;2023-03-01T01:31:01;32.17;;;17.80;;
61200;SDS011;47065;52.898;6.992;2023-03-01T01:33:27;32.10;;;17.23;;
61200;SDS011;47065;52.898;6.992;2023-03-01T01:35:53;25.42;;;15.45;;
61200;SDS011;47065;52.898;6.992;2023-03-01T01:38:19;27.20;;;15.82;;
61200;SDS011;47065;52.898;6.992;2023-03-01T01:40:45;28.65;;;17.17;;
61200;SDS011;47065;52.898;6.992;2023-03-01T01:43:18;28.85;;;18.00;;
61200;SDS011;47065;52.898;6.992;2023-03-01T01:45:55;30.65;;;18.27;;
61200;SDS011;47065;52.898;6.992;2023-03-01T01:48:27;28.15;;;16.80;;
61200;SDS011;47065;52.898;6.992;2023-03-01T01:51:05;26.33;;;15.77;;
61200;SDS011;47065;52.898;6.992;2023-03-01T01:53:34;26.92;;;13.98;;
61200;SDS011;47065;52.898;6.992;2023-03-01T01:56:01;24.98;;;15.32;;
61200;SDS011;47065;52.898;6.992;2023-03-01T01:58:28;22.88;;;14.27;;
61200;SDS011;47065;52.898;6.992;2023-03-01T02:00:55;28.65;;;15.55;;
61200;SDS011;47065;52.898;6.992;2023-03-01T02:03:26;31.73;;;16.88;;
61200;SDS011;47065;52.898;6.992;2023-03-01T02:06:05;25.98;;;14.95;;
61200;SDS011;47065;52.898;6.992;2023-03-01T02:08:38;24.98;;;15.52;;
61200;SDS011;47065;52.898;6.992;2023-03-01T02:11:07;30.30;;;17.42;;
61200;SDS011;47065;52.898;6.992;2023-03-01T02:13:35;27.45;;;16.33;;
61200;SDS011;47065;52.898;6.992;2023-03-01T02:16:08;29.70;;;17.15;;
61200;SDS011;47065;52.898;6.992;2023-03-01T02:18:36;33.10;;;16.05;;
61200;SDS011;47065;52.898;6.992;2023-03-01T02:23:53;26.90;;;16.00;;
61200;SDS011;47065;52.898;6.992;2023-03-01T02:26:24;27.10;;;17.67;;
61200;SDS011;47065;52.898;6.992;2023-03-01T02:29:05;28.63;;;15.55;;
61200;SDS011;47065;52.898;6.992;2023-03-01T02:31:31;34.50;;;19.77;;
61200;SDS011;47065;52.898;6.992;2023-03-01T02:34:14;31.77;;;16.92;;
61200;SDS011;47065;52.898;6.992;2023-03-01T02:36:49;36.08;;;18.17;;
61200;SDS011;47065;52.898;6.992;2023-03-01T02:39:17;37.63;;;18.85;;
61200;SDS011;47065;52.898;6.992;2023-03-01T02:41:48;29.35;;;18.15;;
61200;SDS011;47065;52.898;6.992;2023-03-01T02:44:16;31.23;;;17.42;;
61200;SDS011;47065;52.898;6.992;2023-03-01T02:46:53;32.33;;;17.95;;
61200;SDS011;47065;52.898;6.992;2023-03-01T02:49:28;34.42;;;19.77;;
61200;SDS011;47065;52.898;6.992;2023-03-01T02:54:33;29.83;;;17.13;;
61200;SDS011;47065;52.898;6.992;2023-03-01T02:57:07;32.13;;;18.27;;
61200;SDS011;47065;52.898;6.992;2023-03-01T02:59:34;28.05;;;17.52;;
61200;SDS011;47065;52.898;6.992;2023-03-01T03:02:04;29.50;;;16.83;;
61200;SDS011;47065;52.898;6.992;2023-03-01T03:04:31;32.40;;;17.63;;
61200;SDS011;47065;52.898;6.992;2023-03-01T03:06:57;34.25;;;19.02;;
61200;SDS011;47065;52.898;6.992;2023-03-01T03:09:22;36.50;;;18.92;;
61200;SDS011;47065;52.898;6.992;2023-03-01T03:11:48;35.97;;;19.25;;
61200;SDS011;47065;52.898;6.992;2023-03-01T03:14:14;34.05;;;17.65;;
61200;SDS011;47065;52.898;6.992;2023-03-01T03:16:46;31.83;;;17.35;;
61200;SDS011;47065;52.898;6.992;2023-03-01T03:19:14;32.97;;;17.95;;
61200;SDS011;47065;52.898;6.992;2023-03-01T03:21:41;29.40;;;17.30;;
61200;SDS011;47065;52.898;6.992;2023-03-01T03:24:07;29.63;;;17.48;;
61200;SDS011;47065;52.898;6.992;2023-03-01T03:26:33;32.35;;;18.27;;
61200;SDS011;47065;52.898;6.992;2023-03-01T03:28:59;32.45;;;17.83;;
61200;SDS011;47065;52.898;6.992;2023-03-01T03:31:24;34.38;;;19.13;;
61200;SDS011;47065;52.898;6.992;2023-03-01T03:33:51;28.35;;;17.65;;
61200;SDS011;47065;52.898;6.992;2023-03-01T03:36:18;29.40;;;16.83;;
61200;SDS011;47065;52.898;6.992;2023-03-01T03:38:46;30.83;;;18.35;;
61200;SDS011;47065;52.898;6.992;2023-03-01T03:41:12;35.58;;;19.75;;
61200;SDS011;47065;52.898;6.992;2023-03-01T03:43:39;33.00;;;18.88;;
61200;SDS011;47065;52.898;6.992;2023-03-01T03:46:06;37.35;;;20.65;;
61200;SDS011;47065;52.898;6.992;2023-03-01T03:48:36;44.95;;;22.65;;
61200;SDS011;47065;52.898;6.992;2023-03-01T03:51:03;28.30;;;17.52;;
61200;SDS011;47065;52.898;6.992;2023-03-01T03:53:33;36.90;;;21.33;;
61200;SDS011;47065;52.898;6.992;2023-03-01T03:55:58;29.10;;;18.75;;
61200;SDS011;47065;52.898;6.992;2023-03-01T03:58:25;31.83;;;17.88;;
61200;SDS011;47065;52.898;6.992;2023-03-01T04:00:52;32.88;;;17.77;;
61200;SDS011;47065;52.898;6.992;2023-03-01T04:03:21;25.58;;;15.85;;
61200;SDS011;47065;52.898;6.992;2023-03-01T04:05:47;28.77;;;16.52;;
61200;SDS011;47065;52.898;6.992;2023-03-01T04:08:15;26.48;;;15.30;;
61200;SDS011;47065;52.898;6.992;2023-03-01T04:10:45;24.58;;;15.13;;
61200;SDS011;47065;52.898;6.992;2023-03-01T04:13:14;30.02;;;16.77;;
61200;SDS011;47065;52.898;6.992;2023-03-01T04:15:41;26.80;;;15.23;;
61200;SDS011;47065;52.898;6.992;2023-03-01T04:18:13;24.92;;;14.75;;
61200;SDS011;47065;52.898;6.992;2023-03-01T04:20:40;29.27;;;15.27;;
61200;SDS011;47065;52.898;6.992;2023-03-01T04:28:26;77.32;;;26.90;;
61200;SDS011;47065;52.898;6.992;2023-03-01T04:30:55;44.80;;;22.45;;
61200;SDS011;47065;52.898;6.992;2023-03-01T04:33:23;40.67;;;18.80;;
61200;SDS011;47065;52.898;6.992;2023-03-01T04:35:49;35.05;;;19.63;;
61200;SDS011;47065;52.898;6.992;2023-03-01T04:38:16;37.42;;;19.27;;
61200;SDS011;47065;52.898;6.992;2023-03-01T04:40:42;33.28;;;17.92;;
61200;SDS011;47065;52.898;6.992;2023-03-01T04:43:08;20.45;;;12.43;;
61200;SDS011;47065;52.898;6.992;2023-03-01T04:45:35;18.35;;;11.98;;
61200;SDS011;47065;52.898;6.992;2023-03-01T04:48:01;18.90;;;12.65;;
61200;SDS011;47065;52.898;6.992;2023-03-01T04:50:27;18.58;;;12.65;;
61200;SDS011;47065;52.898;6.992;2023-03-01T04:52:53;21.30;;;12.65;;
61200;SDS011;47065;52.898;6.992;2023-03-01T04:55:23;20.85;;;13.35;;
61200;SDS011;47065;52.898;6.992;2023-03-01T04:57:53;25.27;;;15.60;;
61200;SDS011;47065;52.898;6.992;2023-03-01T05:00:19;24.08;;;14.30;;
61200;SDS011;47065;52.898;6.992;2023-03-01T05:02:49;23.70;;;14.80;;
61200;SDS011;47065;52.898;6.992;2023-03-01T05:05:26;24.60;;;15.30;;
61200;SDS011;47065;52.898;6.992;2023-03-01T05:07:57;33.65;;;15.95;;
61200;SDS011;47065;52.898;6.992;2023-03-01T05:10:25;25.85;;;14.82;;
61200;SDS011;47065;52.898;6.992;2023-03-01T05:12:53;23.75;;;14.55;;
61200;SDS011;47065;52.898;6.992;2023-03-01T05:15:19;20.52;;;14.45;;
61200;SDS011;47065;52.898;6.992;2023-03-01T05:17:50;25.90;;;15.25;;
61200;SDS011;47065;52.898;6.992;2023-03-01T05:20:17;30.63;;;17.58;;
61200;SDS011;47065;52.898;6.992;2023-03-01T05:22:43;24.88;;;14.80;;
61200;SDS011;47065;52.898;6.992;2023-03-01T05:25:08;25.27;;;15.25;;
61200;SDS011;47065;52.898;6.992;2023-03-01T05:27:35;27.80;;;14.38;;
61200;SDS011;47065;52.898;6.992;2023-03-01T05:30:01;25.00;;;12.50;;
61200;SDS011;47065;52.898;6.992;2023-03-01T05:32:38;18.63;;;11.88;;
61200;SDS011;47065;52.898;6.992;2023-03-01T05:35:05;21.13;;;9.43;;
61200;SDS011;47065;52.898;6.992;2023-03-01T05:37:31;16.98;;;10.15;;
61200;SDS011;47065;52.898;6.992;2023-03-01T05:39:57;12.95;;;9.45;;
61200;SDS011;47065;52.898;6.992;2023-03-01T05:42:22;13.73;;;7.95;;
61200;SDS011;47065;52.898;6.992;2023-03-01T05:44:48;12.88;;;8.43;;
61200;SDS011;47065;52.898;6.992;2023-03-01T05:47:14;15.70;;;9.80;;
61200;SDS011;47065;52.898;6.992;2023-03-01T05:49:39;24.08;;;14.85;;
61200;SDS011;47065;52.898;6.992;2023-03-01T05:52:05;39.40;;;15.93;;
61200;SDS011;47065;52.898;6.992;2023-03-01T05:54:30;23.92;;;13.85;;
61200;SDS011;47065;52.898;6.992;2023-03-01T05:56:56;22.27;;;14.63;;
61200;SDS011;47065;52.898;6.992;2023-03-01T05:59:22;25.85;;;16.00;;
61200;SDS011;47065;52.898;6.992;2023-03-01T06:01:48;25.30;;;15.10;;
61200;SDS011;47065;52.898;6.992;2023-03-01T06:04:13;24.65;;;14.15;;
61200;SDS011;47065;52.898;6.992;2023-03-01T06:06:39;18.67;;;11.30;;
61200;SDS011;47065;52.898;6.992;2023-03-01T06:09:05;17.38;;;12.27;;
61200;SDS011;47065;52.898;6.992;2023-03-01T06:11:33;20.05;;;13.23;;
61200;SDS011;47065;52.898;6.992;2023-03-01T06:13:59;20.02;;;13.00;;
61200;SDS011;47065;52.898;6.992;2023-03-01T06:16:25;21.10;;;13.20;;
61200;SDS011;47065;52.898;6.992;2023-03-01T06:18:51;23.80;;;14.35;;
61200;SDS011;47065;52.898;6.992;2023-03-01T06:21:16;27.95;;;16.25;;
61200;SDS011;47065;52.898;6.992;2023-03-01T06:23:42;24.60;;;15.35;;
61200;SDS011;47065;52.898;6.992;2023-03-01T06:26:08;26.10;;;16.23;;
61200;SDS011;47065;52.898;6.992;2023-03-01T06:28:34;26.45;;;15.07;;
61200;SDS011;47065;52.898;6.992;2023-03-01T06:31:00;28.33;;;17.05;;
61200;SDS011;47065;52.898;6.992;2023-03-01T06:33:26;23.05;;;15.02;;
61200;SDS011;47065;52.898;6.992;2023-03-01T06:35:54;24.73;;;14.70;;
61200;SDS011;47065;52.898;6.992;2023-03-01T06:38:20;19.52;;;12.13;;
61200;SDS011;47065;52.898;6.992;2023-03-01T06:40:51;20.35;;;13.93;;
61200;SDS011;47065;52.898;6.992;2023-03-01T06:43:17;23.30;;;12.98;;
61200;SDS011;47065;52.898;6.992;2023-03-01T06:45:42;22.27;;;13.20;;
61200;SDS011;47065;52.898;6.992;2023-03-01T06:48:08;22.65;;;14.07;;
61200;SDS011;47065;52.898;6.992;2023-03-01T06:50:34;32.53;;;16.83;;
61200;SDS011;47065;52.898;6.992;2023-03-01T06:53:00;22.65;;;13.65;;
61200;SDS011;47065;52.898;6.992;2023-03-01T06:55:27;22.77;;;13.25;;
61200;SDS011;47065;52.898;6.992;2023-03-01T06:57:56;22.92;;;14.85;;
61200;SDS011;47065;52.898;6.992;2023-03-01T07:00:22;26.75;;;14.88;;
61200;SDS011;47065;52.898;6.992;2023-03-01T07:02:48;27.40;;;15.32;;
61200;SDS011;47065;52.898;6.992;2023-03-01T07:05:14;28.17;;;14.65;;
61200;SDS011;47065;52.898;6.992;2023-03-01T07:07:40;28.92;;;15.57;;
61200;SDS011;47065;52.898;6.992;2023-03-01T07:10:06;30.23;;;15.05;;
61200;SDS011;47065;52.898;6.992;2023-03-01T07:12:32;32.72;;;15.63;;
61200;SDS011;47065;52.898;6.992;2023-03-01T07:14:58;29.73;;;16.63;;
61200;SDS011;47065;52.898;6.992;2023-03-01T07:17:23;28.17;;;17.02;;
61200;SDS011;47065;52.898;6.992;2023-03-01T07:19:49;28.92;;;16.80;;
61200;SDS011;47065;52.898;6.992;2023-03-01T07:22:15;28.42;;;16.30;;
61200;SDS011;47065;52.898;6.992;2023-03-01T07:24:41;34.88;;;16.85;;
61200;SDS011;47065;52.898;6.992;2023-03-01T07:27:07;29.05;;;16.75;;
61200;SDS011;47065;52.898;6.992;2023-03-01T07:29:33;29.83;;;16.90;;
61200;SDS011;47065;52.898;6.992;2023-03-01T07:32:01;32.15;;;18.27;;
61200;SDS011;47065;52.898;6.992;2023-03-01T07:34:27;37.38;;;18.13;;
61200;SDS011;47065;52.898;6.992;2023-03-01T07:36:53;37.40;;;20.45;;
61200;SDS011;47065;52.898;6.992;2023-03-01T07:39:18;37.83;;;19.48;;
61200;SDS011;47065;52.898;6.992;2023-03-01T07:41:44;42.13;;;21.30;;
61200;SDS011;47065;52.898;6.992;2023-03-01T07:44:10;38.78;;;19.92;;
61200;SDS011;47065;52.898;6.992;2023-03-01T07:46:35;38.60;;;21.38;;
61200;SDS011;47065;52.898;6.992;2023-03-01T07:49:01;42.25;;;21.23;;
61200;SDS011;47065;52.898;6.992;2023-03-01T07:51:27;50.42;;;24.92;;
61200;SDS011;47065;52.898;6.992;2023-03-01T07:53:52;49.03;;;27.88;;
61200;SDS011;47065;52.898;6.992;2023-03-01T07:56:18;50.58;;;25.77;;
61200;SDS011;47065;52.898;6.992;2023-03-01T07:58:44;54.83;;;27.73;;
61200;SDS011;47065;52.898;6.992;2023-03-01T08:01:11;51.22;;;27.35;;
61200;SDS011;47065;52.898;6.992;2023-03-01T08:03:39;62.78;;;30.08;;
61200;SDS011;47065;52.898;6.992;2023-03-01T08:06:06;65.38;;;33.75;;
61200;SDS011;47065;52.898;6.992;2023-03-01T08:08:33;56.38;;;32.10;;
61200;SDS011;47065;52.898;6.992;2023-03-01T08:11:00;61.03;;;31.75;;
61200;SDS011;47065;52.898;6.992;2023-03-01T08:13:26;69.00;;;35.05;;
61200;SDS011;47065;52.898;6.992;2023-03-01T08:15:52;72.30;;;36.33;;
61200;SDS011;47065;52.898;6.992;2023-03-01T08:18:19;65.88;;;36.92;;
61200;SDS011;47065;52.898;6.992;2023-03-01T08:20:46;66.82;;;36.45;;
61200;SDS011;47065;52.898;6.992;2023-03-01T08:23:11;71.22;;;37.47;;
61200;SDS011;47065;52.898;6.992;2023-03-01T08:25:37;75.57;;;37.78;;
61200;SDS011;47065;52.898;6.992;2023-03-01T08:28:05;66.88;;;34.65;;
61200;SDS011;47065;52.898;6.992;2023-03-01T08:30:31;74.93;;;37.00;;
61200;SDS011;47065;52.898;6.992;2023-03-01T08:32:57;73.22;;;38.03;;
61200;SDS011;47065;52.898;6.992;2023-03-01T08:35:22;71.25;;;35.15;;
61200;SDS011;47065;52.898;6.992;2023-03-01T08:37:48;71.68;;;36.15;;
61200;SDS011;47065;52.898;6.992;2023-03-01T08:40:14;54.42;;;31.48;;
61200;SDS011;47065;52.898;6.992;2023-03-01T08:42:40;55.55;;;30.30;;
61200;SDS011;47065;52.898;6.992;2023-03-01T08:45:08;61.13;;;30.95;;
61200;SDS011;47065;52.898;6.992;2023-03-01T08:47:34;51.67;;;29.65;;
61200;SDS011;47065;52.898;6.992;2023-03-01T08:50:00;47.15;;;27.38;;
61200;SDS011;47065;52.898;6.992;2023-03-01T08:52:26;45.15;;;27.08;;
61200;SDS011;47065;52.898;6.992;2023-03-01T08:54:52;43.17;;;25.85;;
61200;SDS011;47065;52.898;6.992;2023-03-01T08:57:18;39.63;;;25.15;;
61200;SDS011;47065;52.898;6.992;2023-03-01T08:59:43;45.40;;;26.83;;
61200;SDS011;47065;52.898;6.992;2023-03-01T09:02:13;32.90;;;21.55;;
61200;SDS011;47065;52.898;6.992;2023-03-01T09:04:41;29.13;;;20.10;;
61200;SDS011;47065;52.898;6.992;2023-03-01T09:07:07;32.40;;;18.73;;
61200;SDS011;47065;52.898;6.992;2023-03-01T09:09:33;23.98;;;17.58;;
61200;SDS011;47065;52.898;6.992;2023-03-01T09:12:00;23.48;;;16.10;;
61200;SDS011;47065;52.898;6.992;2023-03-01T09:14:26;20.75;;;15.52;;
61200;SDS011;47065;52.898;6.992;2023-03-01T09:16:52;21.80;;;15.27;;
61200;SDS011;47065;52.898;6.992;2023-03-01T09:19:18;21.70;;;16.35;;
61200;SDS011;47065;52.898;6.992;2023-03-01T09:21:43;26.58;;;18.98;;
61200;SDS011;47065;52.898;6.992;2023-03-01T09:24:17;25.25;;;17.27;;
61200;SDS011;47065;52.898;6.992;2023-03-01T09:26:44;26.92;;;19.20;;
61200;SDS011;47065;52.898;6.992;2023-03-01T09:29:13;25.75;;;18.30;;
61200;SDS011;47065;52.898;6.992;2023-03-01T09:31:40;25.65;;;18.40;;
61200;SDS011;47065;52.898;6.992;2023-03-01T09:34:06;24.10;;;18.60;;
61200;SDS011;47065;52.898;6.992;2023-03-01T09:36:33;20.55;;;16.10;;
61200;SDS011;47065;52.898;6.992;2023-03-01T09:38:59;22.23;;;16.27;;
61200;SDS011;47065;52.898;6.992;2023-03-01T09:44:18;16.63;;;13.45;;
61200;SDS011;47065;52.898;6.992;2023-03-01T09:47:02;16.02;;;11.93;;
61200;SDS011;47065;52.898;6.992;2023-03-01T09:49:35;13.60;;;10.90;;
61200;SDS011;47065;52.898;6.992;2023-03-01T09:55:16;8.05;;;5.50;;
61200;SDS011;47065;52.898;6.992;2023-03-01T09:57:50;9.05;;;7.38;;
61200;SDS011;47065;52.898;6.992;2023-03-01T10:00:36;10.93;;;6.90;;
61200;SDS011;47065;52.898;6.992;2023-03-01T10:03:12;8.75;;;6.00;;
61200;SDS011;47065;52.898;6.992;2023-03-01T10:05:56;4.93;;;4.13;;
61200;SDS011;47065;52.898;6.992;2023-03-01T10:08:37;7.25;;;4.22;;
61200;SDS011;47065;52.898;6.992;2023-03-01T10:11:17;4.32;;;3.58;;
61200;SDS011;47065;52.898;6.992;2023-03-01T10:13:54;4.32;;;3.25;;
61200;SDS011;47065;52.898;6.992;2023-03-01T10:19:23;4.57;;;3.08;;
61200;SDS011;47065;52.898;6.992;2023-03-01T10:21:53;4.15;;;3.63;;
61200;SDS011;47065;52.898;6.992;2023-03-01T10:24:22;5.80;;;2.30;;
61200;SDS011;47065;52.898;6.992;2023-03-01T10:26:50;4.25;;;2.95;;
61200;SDS011;47065;52.898;6.992;2023-03-01T10:29:22;4.72;;;3.15;;
61200;SDS011;47065;52.898;6.992;2023-03-01T10:31:51;2.83;;;2.25;;
61200;SDS011;47065;52.898;6.992;2023-03-01T10:34:20;3.97;;;3.20;;
61200;SDS011;47065;52.898;6.992;2023-03-01T10:36:54;7.68;;;5.28;;
61200;SDS011;47065;52.898;6.992;2023-03-01T10:39:23;7.72;;;5.30;;
61200;SDS011;47065;52.898;6.992;2023-03-01T10:44:34;8.10;;;5.72;;
61200;SDS011;47065;52.898;6.992;2023-03-01T10:47:01;7.53;;;5.20;;
61200;SDS011;47065;52.898;6.992;2023-03-01T10:49:27;9.88;;;6.95;;
61200;SDS011;47065;52.898;6.992;2023-03-01T10:51:53;7.00;;;5.60;;
61200;SDS011;47065;52.898;6.992;2023-03-01T10:54:29;9.55;;;5.78;;
61200;SDS011;47065;52.898;6.992;2023-03-01T10:57:00;8.65;;;5.70;;
61200;SDS011;47065;52.898;6.992;2023-03-01T10:59:35;8.35;;;6.28;;
61200;SDS011;47065;52.898;6.992;2023-03-01T11:04:34;9.35;;;5.38;;
61200;SDS011;47065;52.898;6.992;2023-03-01T11:07:00;7.72;;;6.28;;
61200;SDS011;47065;52.898;6.992;2023-03-01T11:09:30;7.93;;;6.18;;
61200;SDS011;47065;52.898;6.992;2023-03-01T11:12:03;10.45;;;6.40;;
61200;SDS011;47065;52.898;6.992;2023-03-01T11:14:33;8.55;;;5.60;;
61200;SDS011;47065;52.898;6.992;2023-03-01T11:19:27;9.88;;;5.47;;
61200;SDS011;47065;52.898;6.992;2023-03-01T11:21:59;7.93;;;5.38;;
61200;SDS011;47065;52.898;6.992;2023-03-01T11:24:29;9.10;;;6.20;;
61200;SDS011;47065;52.898;6.992;2023-03-01T11:27:28;9.93;;;5.35;;
61200;SDS011;47065;52.898;6.992;2023-03-01T11:32:27;6.22;;;4.18;;
61200;SDS011;47065;52.898;6.992;2023-03-01T11:34:57;6.18;;;4.25;;
61200;SDS011;47065;52.898;6.992;2023-03-01T11:37:32;6.20;;;4.25;;
61200;SDS011;47065;52.898;6.992;2023-03-01T11:50:26;7.55;;;4.20;;
61200;SDS011;47065;52.898;6.992;2023-03-01T11:53:14;7.15;;;4.75;;
61200;SDS011;47065;52.898;6.992;2023-03-01T11:55:58;7.20;;;5.05;;
61200;SDS011;47065;52.898;6.992;2023-03-01T12:01:36;7.10;;;4.63;;
61200;SDS011;47065;52.898;6.992;2023-03-01T12:04:20;6.75;;;4.43;;
61200;SDS011;47065;52.898;6.992;2023-03-01T12:07:01;8.05;;;4.70;;
61200;SDS011;47065;52.898;6.992;2023-03-01T12:13:03;7.32;;;5.68;;
61200;SDS011;47065;52.898;6.992;2023-03-01T12:15:55;10.25;;;4.90;;
61200;SDS011;47065;52.898;6.992;2023-03-01T12:21:05;7.28;;;4.65;;
61200;SDS011;47065;52.898;6.992;2023-03-01T12:26:34;6.10;;;4.57;;
61200;SDS011;47065;52.898;6.992;2023-03-01T12:45:42;10.18;;;6.15;;
61200;SDS011;47065;52.898;6.992;2023-03-01T12:51:23;9.48;;;6.75;;
61200;SDS011;47065;52.898;6.992;2023-03-01T12:53:53;13.65;;;7.55;;
61200;SDS011;47065;52.898;6.992;2023-03-01T13:07:29;12.68;;;8.20;;
61200;SDS011;47065;52.898;6.992;2023-03-01T13:10:21;11.88;;;8.32;;
61200;SDS011;47065;52.898;6.992;2023-03-01T13:17:55;12.38;;;8.27;;
61200;SDS011;47065;52.898;6.992;2023-03-01T13:20:27;10.63;;;8.65;;
61200;SDS011;47065;52.898;6.992;2023-03-01T13:23:03;11.85;;;8.10;;
61200;SDS011;47065;52.898;6.992;2023-03-01T13:25:33;12.88;;;7.82;;
61200;SDS011;47065;52.898;6.992;2023-03-01T13:30:58;11.80;;;8.30;;
61200;SDS011;47065;52.898;6.992;2023-03-01T13:35:51;11.30;;;7.38;;
61200;SDS011;47065;52.898;6.992;2023-03-01T13:41:02;14.18;;;8.07;;
61200;SDS011;47065;52.898;6.992;2023-03-01T13:43:34;12.20;;;8.07;;
61200;SDS011;47065;52.898;6.992;2023-03-01T13:46:07;11.93;;;7.80;;
61200;SDS011;47065;52.898;6.992;2023-03-01T13:48:48;11.00;;;7.47;;
61200;SDS011;47065;52.898;6.992;2023-03-01T13:51:20;12.23;;;7.50;;
61200;SDS011;47065;52.898;6.992;2023-03-01T13:53:51;12.55;;;8.07;;
61200;SDS011;47065;52.898;6.992;2023-03-01T13:58:50;10.35;;;7.72;;
61200;SDS011;47065;52.898;6.992;2023-03-01T14:01:23;11.63;;;7.85;;
61200;SDS011;47065;52.898;6.992;2023-03-01T14:03:49;9.60;;;7.10;;
61200;SDS011;47065;52.898;6.992;2023-03-01T14:06:16;10.52;;;7.20;;
61200;SDS011;47065;52.898;6.992;2023-03-01T14:08:48;11.50;;;7.68;;
61200;SDS011;47065;52.898;6.992;2023-03-01T14:19:23;13.00;;;7.25;;
61200;SDS011;47065;52.898;6.992;2023-03-01T14:24:32;11.98;;;7.57;;
61200;SDS011;47065;52.898;6.992;2023-03-01T14:27:03;12.35;;;7.43;;
61200;SDS011;47065;52.898;6.992;2023-03-01T14:29:34;10.88;;;6.47;;
61200;SDS011;47065;52.898;6.992;2023-03-01T14:32:08;10.20;;;7.07;;
61200;SDS011;47065;52.898;6.992;2023-03-01T14:34:35;12.25;;;7.28;;
61200;SDS011;47065;52.898;6.992;2023-03-01T14:37:11;10.85;;;7.30;;
61200;SDS011;47065;52.898;6.992;2023-03-01T14:39:43;10.55;;;6.93;;
61200;SDS011;47065;52.898;6.992;2023-03-01T14:42:08;12.70;;;7.55;;
61200;SDS011;47065;52.898;6.992;2023-03-01T14:44:34;12.45;;;8.15;;
61200;SDS011;47065;52.898;6.992;2023-03-01T14:47:02;9.52;;;7.20;;
61200;SDS011;47065;52.898;6.992;2023-03-01T14:49:30;11.80;;;7.18;;
61200;SDS011;47065;52.898;6.992;2023-03-01T14:52:00;12.20;;;8.77;;
61200;SDS011;47065;52.898;6.992;2023-03-01T14:54:37;11.40;;;8.07;;
61200;SDS011;47065;52.898;6.992;2023-03-01T14:57:23;11.80;;;7.47;;
61200;SDS011;47065;52.898;6.992;2023-03-01T14:59:54;11.77;;;6.97;;
61200;SDS011;47065;52.898;6.992;2023-03-01T15:02:23;8.55;;;6.35;;
61200;SDS011;47065;52.898;6.992;2023-03-01T15:05:00;14.93;;;8.90;;
61200;SDS011;47065;52.898;6.992;2023-03-01T15:07:30;11.90;;;8.13;;
61200;SDS011;47065;52.898;6.992;2023-03-01T15:09:59;11.48;;;7.70;;
61200;SDS011;47065;52.898;6.992;2023-03-01T15:15:08;10.95;;;7.93;;
61200;SDS011;47065;52.898;6.992;2023-03-01T15:20:16;9.05;;;6.78;;
61200;SDS011;47065;52.898;6.992;2023-03-01T15:22:46;13.88;;;8.02;;
61200;SDS011;47065;52.898;6.992;2023-03-01T15:25:20;11.68;;;7.93;;
61200;SDS011;47065;52.898;6.992;2023-03-01T15:27:49;11.95;;;8.25;;
61200;SDS011;47065;52.898;6.992;2023-03-01T15:30:17;10.73;;;7.97;;
61200;SDS011;47065;52.898;6.992;2023-03-01T15:32:46;12.23;;;8.93;;
61200;SDS011;47065;52.898;6.992;2023-03-01T15:40:52;16.45;;;9.60;;
61200;SDS011;47065;52.898;6.992;2023-03-01T15:46:05;15.85;;;9.35;;
61200;SDS011;47065;52.898;6.992;2023-03-01T15:48:54;14.00;;;10.65;;
61200;SDS011;47065;52.898;6.992;2023-03-01T15:51:23;14.82;;;10.27;;
61200;SDS011;47065;52.898;6.992;2023-03-01T15:53:58;14.10;;;9.90;;
61200;SDS011;47065;52.898;6.992;2023-03-01T15:56:28;15.40;;;9.85;;
61200;SDS011;47065;52.898;6.992;2023-03-01T15:58:57;13.60;;;10.10;;
61200;SDS011;47065;52.898;6.992;2023-03-01T16:01:24;12.25;;;9.27;;
61200;SDS011;47065;52.898;6.992;2023-03-01T16:03:50;15.63;;;9.93;;
61200;SDS011;47065;52.898;6.992;2023-03-01T16:06:16;16.52;;;11.02;;
61200;SDS011;47065;52.898;6.992;2023-03-01T16:08:42;16.15;;;10.30;;
61200;SDS011;47065;52.898;6.992;2023-03-01T16:11:15;16.77;;;11.30;;
61200;SDS011;47065;52.898;6.992;2023-03-01T16:13:42;14.88;;;10.32;;
61200;SDS011;47065;52.898;6.992;2023-03-01T16:16:09;15.68;;;10.55;;
61200;SDS011;47065;52.898;6.992;2023-03-01T16:18:46;17.42;;;11.70;;
61200;SDS011;47065;52.898;6.992;2023-03-01T16:21:13;17.38;;;11.38;;
61200;SDS011;47065;52.898;6.992;2023-03-01T16:23:45;14.63;;;10.38;;
61200;SDS011;47065;52.898;6.992;2023-03-01T16:26:12;14.93;;;10.90;;
61200;SDS011;47065;52.898;6.992;2023-03-01T16:28:38;15.73;;;11.02;;
61200;SDS011;47065;52.898;6.992;2023-03-01T16:31:07;15.32;;;10.32;;
61200;SDS011;47065;52.898;6.992;2023-03-01T16:33:34;17.55;;;11.57;;
61200;SDS011;47065;52.898;6.992;2023-03-01T16:36:09;16.63;;;11.13;;
61200;SDS011;47065;52.898;6.992;2023-03-01T16:38:36;19.88;;;12.00;;
61200;SDS011;47065;52.898;6.992;2023-03-01T16:41:06;17.92;;;11.45;;